sensor_id;sensor_type;location;lat;lon;timestamp;temperature;humidity
20066;DHT22;10193;48.884;9.182;2022-08-19T00:00:07;23.70;54.10
20066;DHT22;10193;48.884;9.182;2022-08-19T00:02:34;23.70;54.20
20066;DHT22;10193;48.884;9.182;2022-08-19T00:05:01;23.70;54.30
20066;DHT22;10193;48.884;9.182;2022-08-19T00:07:29;23.70;54.30
20066;DHT22;10193;48.884;9.182;2022-08-19T00:09:56;23.70;54.40
20066;DHT22;10193;48.884;9.182;2022-08-19T00:12:23;23.70;54.40
20066;DHT22;10193;48.884;9.182;2022-08-19T00:14:50;23.70;54.50
20066;DHT22;10193;48.884;9.182;2022-08-19T00:17:18;23.70;54.60
20066;DHT22;10193;48.884;9.182;2022-08-19T00:19:45;23.70;54.60
20066;DHT22;10193;48.884;9.182;2022-08-19T00:22:11;23.70;54.70
20066;DHT22;10193;48.884;9.182;2022-08-19T00:24:39;23.70;54.70
20066;DHT22;10193;48.884;9.182;2022-08-19T00:27:08;23.70;54.70
20066;DHT22;10193;48.884;9.182;2022-08-19T00:29:35;23.60;54.70
20066;DHT22;10193;48.884;9.182;2022-08-19T00:32:02;23.60;54.70
20066;DHT22;10193;48.884;9.182;2022-08-19T00:34:29;23.60;54.80
20066;DHT22;10193;48.884;9.182;2022-08-19T00:36:57;23.60;54.80
20066;DHT22;10193;48.884;9.182;2022-08-19T00:39:25;23.60;54.80
20066;DHT22;10193;48.884;9.182;2022-08-19T00:41:53;23.60;54.80
20066;DHT22;10193;48.884;9.182;2022-08-19T00:44:23;23.60;54.80
20066;DHT22;10193;48.884;9.182;2022-08-19T00:46:51;23.60;54.80
20066;DHT22;10193;48.884;9.182;2022-08-19T00:49:23;23.60;54.90
20066;DHT22;10193;48.884;9.182;2022-08-19T00:51:53;23.60;54.90
20066;DHT22;10193;48.884;9.182;2022-08-19T00:54:22;23.60;55.00
20066;DHT22;10193;48.884;9.182;2022-08-19T00:56:49;23.60;55.00
20066;DHT22;10193;48.884;9.182;2022-08-19T00:59:19;23.60;55.00
20066;DHT22;10193;48.884;9.182;2022-08-19T01:01:47;23.60;55.10
20066;DHT22;10193;48.884;9.182;2022-08-19T01:04:13;23.60;55.10
20066;DHT22;10193;48.884;9.182;2022-08-19T01:06:41;23.60;55.10
20066;DHT22;10193;48.884;9.182;2022-08-19T01:09:08;23.60;55.10
20066;DHT22;10193;48.884;9.182;2022-08-19T01:11:39;23.50;55.10
20066;DHT22;10193;48.884;9.182;2022-08-19T01:14:07;23.50;55.10
20066;DHT22;10193;48.884;9.182;2022-08-19T01:16:37;23.50;55.10
20066;DHT22;10193;48.884;9.182;2022-08-19T01:19:10;23.50;55.20
20066;DHT22;10193;48.884;9.182;2022-08-19T01:21:43;23.50;55.20
20066;DHT22;10193;48.884;9.182;2022-08-19T01:24:13;23.50;55.30
20066;DHT22;10193;48.884;9.182;2022-08-19T01:26:42;23.50;55.20
20066;DHT22;10193;48.884;9.182;2022-08-19T01:29:11;23.50;55.30
20066;DHT22;10193;48.884;9.182;2022-08-19T01:31:37;23.50;55.30
20066;DHT22;10193;48.884;9.182;2022-08-19T01:34:06;23.50;55.30
20066;DHT22;10193;48.884;9.182;2022-08-19T01:36:38;23.50;55.40
20066;DHT22;10193;48.884;9.182;2022-08-19T01:39:09;23.50;55.40
20066;DHT22;10193;48.884;9.182;2022-08-19T01:41:38;23.40;55.30
20066;DHT22;10193;48.884;9.182;2022-08-19T01:44:07;23.40;55.40
20066;DHT22;10193;48.884;9.182;2022-08-19T01:46:35;23.40;55.40
20066;DHT22;10193;48.884;9.182;2022-08-19T01:49:03;23.40;55.50
20066;DHT22;10193;48.884;9.182;2022-08-19T01:51:30;23.40;55.50
20066;DHT22;10193;48.884;9.182;2022-08-19T01:53:57;23.40;55.60
20066;DHT22;10193;48.884;9.182;2022-08-19T01:56:25;23.40;55.70
20066;DHT22;10193;48.884;9.182;2022-08-19T01:58:55;23.30;55.60
20066;DHT22;10193;48.884;9.182;2022-08-19T02:01:22;23.30;55.60
20066;DHT22;10193;48.884;9.182;2022-08-19T02:03:49;23.30;55.60
20066;DHT22;10193;48.884;9.182;2022-08-19T02:06:17;23.30;55.70
20066;DHT22;10193;48.884;9.182;2022-08-19T02:08:44;23.30;55.80
20066;DHT22;10193;48.884;9.182;2022-08-19T02:11:19;23.30;55.80
20066;DHT22;10193;48.884;9.182;2022-08-19T02:13:46;23.30;56.00
20066;DHT22;10193;48.884;9.182;2022-08-19T02:16:16;23.30;55.90
20066;DHT22;10193;48.884;9.182;2022-08-19T02:18:43;23.20;55.90
20066;DHT22;10193;48.884;9.182;2022-08-19T02:21:10;23.20;55.90
20066;DHT22;10193;48.884;9.182;2022-08-19T02:23:36;23.20;56.10
20066;DHT22;10193;48.884;9.182;2022-08-19T02:26:04;23.20;56.10
20066;DHT22;10193;48.884;9.182;2022-08-19T02:28:31;23.20;56.20
20066;DHT22;10193;48.884;9.182;2022-08-19T02:30:57;23.10;56.10
20066;DHT22;10193;48.884;9.182;2022-08-19T02:33:27;23.10;56.20
20066;DHT22;10193;48.884;9.182;2022-08-19T02:35:54;23.10;56.30
20066;DHT22;10193;48.884;9.182;2022-08-19T02:38:20;23.10;56.40
20066;DHT22;10193;48.884;9.182;2022-08-19T02:40:56;23.10;56.40
20066;DHT22;10193;48.884;9.182;2022-08-19T02:43:23;23.10;56.50
20066;DHT22;10193;48.884;9.182;2022-08-19T02:45:50;23.00;56.40
20066;DHT22;10193;48.884;9.182;2022-08-19T02:48:18;23.00;56.40
20066;DHT22;10193;48.884;9.182;2022-08-19T02:50:48;23.00;56.60
20066;DHT22;10193;48.884;9.182;2022-08-19T02:53:18;23.00;56.60
20066;DHT22;10193;48.884;9.182;2022-08-19T02:55:46;23.00;56.70
20066;DHT22;10193;48.884;9.182;2022-08-19T02:58:13;23.00;56.70
20066;DHT22;10193;48.884;9.182;2022-08-19T03:00:45;23.00;56.80
20066;DHT22;10193;48.884;9.182;2022-08-19T03:03:12;22.90;56.70
20066;DHT22;10193;48.884;9.182;2022-08-19T03:05:39;22.90;56.80
20066;DHT22;10193;48.884;9.182;2022-08-19T03:08:08;22.90;56.80
20066;DHT22;10193;48.884;9.182;2022-08-19T03:10:41;22.80;56.80
20066;DHT22;10193;48.884;9.182;2022-08-19T03:13:09;22.80;56.90
20066;DHT22;10193;48.884;9.182;2022-08-19T03:15:39;22.80;56.90
20066;DHT22;10193;48.884;9.182;2022-08-19T03:18:06;22.70;56.90
20066;DHT22;10193;48.884;9.182;2022-08-19T03:20:33;22.70;57.10
20066;DHT22;10193;48.884;9.182;2022-08-19T03:22:59;22.70;57.20
20066;DHT22;10193;48.884;9.182;2022-08-19T03:25:28;22.70;57.30
20066;DHT22;10193;48.884;9.182;2022-08-19T03:27:55;22.60;57.40
20066;DHT22;10193;48.884;9.182;2022-08-19T03:30:21;22.50;57.40
20066;DHT22;10193;48.884;9.182;2022-08-19T03:32:48;22.50;57.50
20066;DHT22;10193;48.884;9.182;2022-08-19T03:35:15;22.50;57.60
20066;DHT22;10193;48.884;9.182;2022-08-19T03:37:42;22.40;57.60
20066;DHT22;10193;48.884;9.182;2022-08-19T03:40:09;22.40;57.70
20066;DHT22;10193;48.884;9.182;2022-08-19T03:42:37;22.40;57.80
20066;DHT22;10193;48.884;9.182;2022-08-19T03:45:08;22.40;57.90
20066;DHT22;10193;48.884;9.182;2022-08-19T03:47:35;22.40;58.10
20066;DHT22;10193;48.884;9.182;2022-08-19T03:50:04;22.40;58.20
20066;DHT22;10193;48.884;9.182;2022-08-19T03:52:31;22.30;58.10
20066;DHT22;10193;48.884;9.182;2022-08-19T03:54:57;22.30;58.20
20066;DHT22;10193;48.884;9.182;2022-08-19T03:57:24;22.30;58.20
20066;DHT22;10193;48.884;9.182;2022-08-19T03:59:52;22.30;58.30
20066;DHT22;10193;48.884;9.182;2022-08-19T04:02:19;22.30;58.30
20066;DHT22;10193;48.884;9.182;2022-08-19T04:04:46;22.30;58.30
20066;DHT22;10193;48.884;9.182;2022-08-19T04:07:14;22.20;58.30
20066;DHT22;10193;48.884;9.182;2022-08-19T04:09:41;22.20;58.30
20066;DHT22;10193;48.884;9.182;2022-08-19T04:12:08;22.20;58.40
20066;DHT22;10193;48.884;9.182;2022-08-19T04:14:35;22.20;58.40
20066;DHT22;10193;48.884;9.182;2022-08-19T04:17:04;22.20;58.40
20066;DHT22;10193;48.884;9.182;2022-08-19T04:19:31;22.20;58.50
20066;DHT22;10193;48.884;9.182;2022-08-19T04:21:58;22.20;58.50
20066;DHT22;10193;48.884;9.182;2022-08-19T04:24:25;22.20;58.50
20066;DHT22;10193;48.884;9.182;2022-08-19T04:26:52;22.20;58.60
20066;DHT22;10193;48.884;9.182;2022-08-19T04:29:20;22.20;58.50
20066;DHT22;10193;48.884;9.182;2022-08-19T04:31:50;22.20;58.60
20066;DHT22;10193;48.884;9.182;2022-08-19T04:34:20;22.20;58.60
20066;DHT22;10193;48.884;9.182;2022-08-19T04:36:48;22.20;58.70
20066;DHT22;10193;48.884;9.182;2022-08-19T04:39:19;22.20;58.60
20066;DHT22;10193;48.884;9.182;2022-08-19T04:41:47;22.20;58.60
20066;DHT22;10193;48.884;9.182;2022-08-19T04:44:31;22.20;58.60
20066;DHT22;10193;48.884;9.182;2022-08-19T04:46:58;22.20;58.60
20066;DHT22;10193;48.884;9.182;2022-08-19T04:49:27;22.20;58.60
20066;DHT22;10193;48.884;9.182;2022-08-19T04:51:54;22.20;58.70
20066;DHT22;10193;48.884;9.182;2022-08-19T04:54:23;22.20;58.70
20066;DHT22;10193;48.884;9.182;2022-08-19T04:56:51;22.20;58.80
20066;DHT22;10193;48.884;9.182;2022-08-19T04:59:19;22.20;58.90
20066;DHT22;10193;48.884;9.182;2022-08-19T05:01:46;22.20;58.90
20066;DHT22;10193;48.884;9.182;2022-08-19T05:04:17;22.20;58.90
20066;DHT22;10193;48.884;9.182;2022-08-19T05:06:46;22.20;59.10
20066;DHT22;10193;48.884;9.182;2022-08-19T05:09:13;22.20;59.10
20066;DHT22;10193;48.884;9.182;2022-08-19T05:11:41;22.20;59.10
20066;DHT22;10193;48.884;9.182;2022-08-19T05:14:08;22.20;59.20
20066;DHT22;10193;48.884;9.182;2022-08-19T05:16:35;22.20;59.20
20066;DHT22;10193;48.884;9.182;2022-08-19T05:19:02;22.20;59.20
20066;DHT22;10193;48.884;9.182;2022-08-19T05:21:47;22.20;59.20
20066;DHT22;10193;48.884;9.182;2022-08-19T05:24:31;22.20;59.20
20066;DHT22;10193;48.884;9.182;2022-08-19T05:27:00;22.20;59.20
20066;DHT22;10193;48.884;9.182;2022-08-19T05:29:29;22.30;59.20
20066;DHT22;10193;48.884;9.182;2022-08-19T05:31:58;22.30;59.20
20066;DHT22;10193;48.884;9.182;2022-08-19T05:34:25;22.30;59.20
20066;DHT22;10193;48.884;9.182;2022-08-19T05:36:57;22.30;59.20
20066;DHT22;10193;48.884;9.182;2022-08-19T05:39:27;22.30;59.20
20066;DHT22;10193;48.884;9.182;2022-08-19T05:41:56;22.30;59.20
20066;DHT22;10193;48.884;9.182;2022-08-19T05:44:24;22.30;59.20
20066;DHT22;10193;48.884;9.182;2022-08-19T05:46:51;22.30;59.20
20066;DHT22;10193;48.884;9.182;2022-08-19T05:49:20;22.30;59.20
20066;DHT22;10193;48.884;9.182;2022-08-19T05:51:47;22.30;59.20
20066;DHT22;10193;48.884;9.182;2022-08-19T05:54:16;22.30;59.20
20066;DHT22;10193;48.884;9.182;2022-08-19T05:56:43;22.30;59.20
20066;DHT22;10193;48.884;9.182;2022-08-19T05:59:13;22.40;59.30
20066;DHT22;10193;48.884;9.182;2022-08-19T06:01:42;22.40;59.30
20066;DHT22;10193;48.884;9.182;2022-08-19T06:04:09;22.40;59.30
20066;DHT22;10193;48.884;9.182;2022-08-19T06:06:36;22.40;59.30
20066;DHT22;10193;48.884;9.182;2022-08-19T06:09:04;22.40;59.30
20066;DHT22;10193;48.884;9.182;2022-08-19T06:11:36;22.40;59.40
20066;DHT22;10193;48.884;9.182;2022-08-19T06:14:06;22.40;59.30
20066;DHT22;10193;48.884;9.182;2022-08-19T06:16:34;22.30;59.20
20066;DHT22;10193;48.884;9.182;2022-08-19T06:19:02;22.40;59.40
20066;DHT22;10193;48.884;9.182;2022-08-19T06:21:31;22.40;59.40
20066;DHT22;10193;48.884;9.182;2022-08-19T06:23:59;22.40;59.40
20066;DHT22;10193;48.884;9.182;2022-08-19T06:26:26;22.40;59.40
20066;DHT22;10193;48.884;9.182;2022-08-19T06:28:55;22.40;59.40
20066;DHT22;10193;48.884;9.182;2022-08-19T06:31:23;22.40;59.40
20066;DHT22;10193;48.884;9.182;2022-08-19T06:33:51;22.40;59.40
20066;DHT22;10193;48.884;9.182;2022-08-19T06:36:20;22.40;59.40
20066;DHT22;10193;48.884;9.182;2022-08-19T06:38:47;22.40;59.50
20066;DHT22;10193;48.884;9.182;2022-08-19T06:41:13;22.50;59.60
20066;DHT22;10193;48.884;9.182;2022-08-19T06:43:40;22.50;59.60
20066;DHT22;10193;48.884;9.182;2022-08-19T06:46:14;22.50;59.60
20066;DHT22;10193;48.884;9.182;2022-08-19T06:48:41;22.50;59.60
20066;DHT22;10193;48.884;9.182;2022-08-19T06:51:08;22.50;59.60
20066;DHT22;10193;48.884;9.182;2022-08-19T06:53:35;22.60;59.60
20066;DHT22;10193;48.884;9.182;2022-08-19T06:56:02;22.60;59.60
20066;DHT22;10193;48.884;9.182;2022-08-19T06:58:29;22.70;60.50
20066;DHT22;10193;48.884;9.182;2022-08-19T07:00:59;22.70;59.70
20066;DHT22;10193;48.884;9.182;2022-08-19T07:03:29;22.70;59.70
20066;DHT22;10193;48.884;9.182;2022-08-19T07:05:57;22.70;59.60
20066;DHT22;10193;48.884;9.182;2022-08-19T07:08:25;22.80;59.60
20066;DHT22;10193;48.884;9.182;2022-08-19T07:10:52;22.80;59.60
20066;DHT22;10193;48.884;9.182;2022-08-19T07:13:20;22.80;59.60
20066;DHT22;10193;48.884;9.182;2022-08-19T07:15:48;22.90;59.60
20066;DHT22;10193;48.884;9.182;2022-08-19T07:18:16;23.00;59.60
20066;DHT22;10193;48.884;9.182;2022-08-19T07:20:44;22.90;59.40
20066;DHT22;10193;48.884;9.182;2022-08-19T07:23:11;23.00;59.60
20066;DHT22;10193;48.884;9.182;2022-08-19T07:25:39;23.00;59.50
20066;DHT22;10193;48.884;9.182;2022-08-19T07:28:06;23.00;59.40
20066;DHT22;10193;48.884;9.182;2022-08-19T07:30:37;23.00;59.40
20066;DHT22;10193;48.884;9.182;2022-08-19T07:33:04;23.00;59.40
20066;DHT22;10193;48.884;9.182;2022-08-19T07:35:30;23.10;59.40
20066;DHT22;10193;48.884;9.182;2022-08-19T07:38:02;23.10;59.30
20066;DHT22;10193;48.884;9.182;2022-08-19T07:40:30;23.10;59.30
20066;DHT22;10193;48.884;9.182;2022-08-19T07:42:57;23.10;59.20
20066;DHT22;10193;48.884;9.182;2022-08-19T07:45:23;23.10;59.20
20066;DHT22;10193;48.884;9.182;2022-08-19T07:47:50;23.10;59.20
20066;DHT22;10193;48.884;9.182;2022-08-19T07:50:19;23.10;59.20
20066;DHT22;10193;48.884;9.182;2022-08-19T07:52:46;23.10;59.20
20066;DHT22;10193;48.884;9.182;2022-08-19T07:55:18;23.10;59.10
20066;DHT22;10193;48.884;9.182;2022-08-19T07:57:45;23.10;59.10
20066;DHT22;10193;48.884;9.182;2022-08-19T08:00:13;23.10;59.10
20066;DHT22;10193;48.884;9.182;2022-08-19T08:02:40;23.10;59.10
20066;DHT22;10193;48.884;9.182;2022-08-19T08:05:08;23.10;59.10
20066;DHT22;10193;48.884;9.182;2022-08-19T08:07:52;23.10;59.00
20066;DHT22;10193;48.884;9.182;2022-08-19T08:10:38;23.10;58.90
20066;DHT22;10193;48.884;9.182;2022-08-19T08:13:04;23.10;58.90
20066;DHT22;10193;48.884;9.182;2022-08-19T08:15:32;23.10;59.00
20066;DHT22;10193;48.884;9.182;2022-08-19T08:17:58;23.10;59.20
20066;DHT22;10193;48.884;9.182;2022-08-19T08:20:25;23.10;59.20
20066;DHT22;10193;48.884;9.182;2022-08-19T08:22:52;23.00;59.20
20066;DHT22;10193;48.884;9.182;2022-08-19T08:25:37;23.10;59.30
20066;DHT22;10193;48.884;9.182;2022-08-19T08:28:05;23.10;59.30
20066;DHT22;10193;48.884;9.182;2022-08-19T08:30:34;23.10;59.20
20066;DHT22;10193;48.884;9.182;2022-08-19T08:33:03;23.10;59.20
20066;DHT22;10193;48.884;9.182;2022-08-19T08:35:30;23.10;59.30
20066;DHT22;10193;48.884;9.182;2022-08-19T08:37:57;23.10;59.40
20066;DHT22;10193;48.884;9.182;2022-08-19T08:40:29;23.10;59.40
20066;DHT22;10193;48.884;9.182;2022-08-19T08:43:03;23.10;59.60
20066;DHT22;10193;48.884;9.182;2022-08-19T08:45:33;23.10;59.60
20066;DHT22;10193;48.884;9.182;2022-08-19T08:48:03;23.20;59.70
20066;DHT22;10193;48.884;9.182;2022-08-19T08:50:39;23.20;59.70
20066;DHT22;10193;48.884;9.182;2022-08-19T08:53:08;23.20;59.60
20066;DHT22;10193;48.884;9.182;2022-08-19T08:55:37;23.20;59.60
20066;DHT22;10193;48.884;9.182;2022-08-19T08:58:10;23.30;59.70
20066;DHT22;10193;48.884;9.182;2022-08-19T09:00:42;23.30;59.70
20066;DHT22;10193;48.884;9.182;2022-08-19T09:03:17;23.30;59.80
20066;DHT22;10193;48.884;9.182;2022-08-19T09:05:52;23.30;59.90
20066;DHT22;10193;48.884;9.182;2022-08-19T09:08:29;23.40;59.90
20066;DHT22;10193;48.884;9.182;2022-08-19T09:11:00;23.50;60.00
20066;DHT22;10193;48.884;9.182;2022-08-19T09:13:35;23.50;59.90
20066;DHT22;10193;48.884;9.182;2022-08-19T09:16:07;23.60;60.00
20066;DHT22;10193;48.884;9.182;2022-08-19T09:18:42;23.60;59.90
20066;DHT22;10193;48.884;9.182;2022-08-19T09:21:10;23.70;59.90
20066;DHT22;10193;48.884;9.182;2022-08-19T09:23:37;23.80;60.00
20066;DHT22;10193;48.884;9.182;2022-08-19T09:26:07;23.80;59.90
20066;DHT22;10193;48.884;9.182;2022-08-19T09:28:36;23.90;59.90
20066;DHT22;10193;48.884;9.182;2022-08-19T09:31:03;23.90;59.80
20066;DHT22;10193;48.884;9.182;2022-08-19T09:33:30;24.00;59.80
20066;DHT22;10193;48.884;9.182;2022-08-19T09:36:09;24.00;59.70
20066;DHT22;10193;48.884;9.182;2022-08-19T09:38:36;24.10;59.60
20066;DHT22;10193;48.884;9.182;2022-08-19T09:41:06;24.10;59.60
20066;DHT22;10193;48.884;9.182;2022-08-19T09:43:35;24.20;59.60
20066;DHT22;10193;48.884;9.182;2022-08-19T09:46:03;24.20;59.50
20066;DHT22;10193;48.884;9.182;2022-08-19T09:48:31;24.30;59.40
20066;DHT22;10193;48.884;9.182;2022-08-19T09:51:03;24.30;59.90
20066;DHT22;10193;48.884;9.182;2022-08-19T09:53:30;24.30;59.20
20066;DHT22;10193;48.884;9.182;2022-08-19T09:55:57;24.30;59.20
20066;DHT22;10193;48.884;9.182;2022-08-19T09:58:23;24.30;59.30
20066;DHT22;10193;48.884;9.182;2022-08-19T10:00:54;24.40;59.30
20066;DHT22;10193;48.884;9.182;2022-08-19T10:03:21;24.40;59.30
20066;DHT22;10193;48.884;9.182;2022-08-19T10:05:48;24.40;59.20
20066;DHT22;10193;48.884;9.182;2022-08-19T10:08:17;24.40;59.00
20066;DHT22;10193;48.884;9.182;2022-08-19T10:10:44;24.50;59.20
20066;DHT22;10193;48.884;9.182;2022-08-19T10:13:12;24.50;59.10
20066;DHT22;10193;48.884;9.182;2022-08-19T10:15:39;24.50;59.00
20066;DHT22;10193;48.884;9.182;2022-08-19T10:18:07;24.50;59.00
20066;DHT22;10193;48.884;9.182;2022-08-19T10:20:35;24.60;59.00
20066;DHT22;10193;48.884;9.182;2022-08-19T10:23:02;24.60;59.10
20066;DHT22;10193;48.884;9.182;2022-08-19T10:25:29;24.60;59.10
20066;DHT22;10193;48.884;9.182;2022-08-19T10:27:56;24.60;59.00
20066;DHT22;10193;48.884;9.182;2022-08-19T10:30:23;24.70;59.10
20066;DHT22;10193;48.884;9.182;2022-08-19T10:32:49;24.70;59.00
20066;DHT22;10193;48.884;9.182;2022-08-19T10:35:18;24.70;58.90
20066;DHT22;10193;48.884;9.182;2022-08-19T10:37:44;24.80;59.00
20066;DHT22;10193;48.884;9.182;2022-08-19T10:40:11;24.80;58.90
20066;DHT22;10193;48.884;9.182;2022-08-19T10:42:38;24.90;58.90
20066;DHT22;10193;48.884;9.182;2022-08-19T10:45:06;24.90;58.70
20066;DHT22;10193;48.884;9.182;2022-08-19T10:47:35;24.90;58.80
20066;DHT22;10193;48.884;9.182;2022-08-19T10:50:03;24.90;58.60
20066;DHT22;10193;48.884;9.182;2022-08-19T10:52:49;25.00;58.60
20066;DHT22;10193;48.884;9.182;2022-08-19T10:55:18;25.00;58.30
20066;DHT22;10193;48.884;9.182;2022-08-19T10:58:03;25.10;58.40
20066;DHT22;10193;48.884;9.182;2022-08-19T11:00:30;25.20;58.30
20066;DHT22;10193;48.884;9.182;2022-08-19T11:02:58;25.20;58.10
20066;DHT22;10193;48.884;9.182;2022-08-19T11:05:25;25.30;58.10
20066;DHT22;10193;48.884;9.182;2022-08-19T11:07:53;25.30;58.60
20066;DHT22;10193;48.884;9.182;2022-08-19T11:10:20;25.40;58.00
20066;DHT22;10193;48.884;9.182;2022-08-19T11:12:47;25.50;57.90
20066;DHT22;10193;48.884;9.182;2022-08-19T11:21:29;25.80;57.50
20066;DHT22;10193;48.884;9.182;2022-08-19T11:24:00;25.90;57.00
20066;DHT22;10193;48.884;9.182;2022-08-19T11:26:29;25.90;56.90
20066;DHT22;10193;48.884;9.182;2022-08-19T11:28:56;26.00;56.50
20066;DHT22;10193;48.884;9.182;2022-08-19T11:31:26;26.00;56.40
20066;DHT22;10193;48.884;9.182;2022-08-19T11:33:53;26.00;56.20
20066;DHT22;10193;48.884;9.182;2022-08-19T11:36:21;26.00;56.10
20066;DHT22;10193;48.884;9.182;2022-08-19T11:38:48;26.00;56.00
20066;DHT22;10193;48.884;9.182;2022-08-19T11:41:18;26.00;55.80
20066;DHT22;10193;48.884;9.182;2022-08-19T11:43:46;26.00;55.80
20066;DHT22;10193;48.884;9.182;2022-08-19T11:46:14;26.00;55.60
20066;DHT22;10193;48.884;9.182;2022-08-19T11:48:41;26.00;55.60
20066;DHT22;10193;48.884;9.182;2022-08-19T11:51:11;26.00;55.70
20066;DHT22;10193;48.884;9.182;2022-08-19T11:53:38;26.00;55.40
20066;DHT22;10193;48.884;9.182;2022-08-19T11:56:07;26.00;55.40
20066;DHT22;10193;48.884;9.182;2022-08-19T11:58:36;26.00;55.40
20066;DHT22;10193;48.884;9.182;2022-08-19T12:01:05;26.00;55.50
20066;DHT22;10193;48.884;9.182;2022-08-19T12:03:33;26.00;55.60
20066;DHT22;10193;48.884;9.182;2022-08-19T12:06:03;26.00;55.50
20066;DHT22;10193;48.884;9.182;2022-08-19T12:08:30;26.00;55.40
20066;DHT22;10193;48.884;9.182;2022-08-19T12:10:57;26.10;55.50
20066;DHT22;10193;48.884;9.182;2022-08-19T12:13:26;26.10;55.40
20066;DHT22;10193;48.884;9.182;2022-08-19T12:15:55;26.10;55.30
20066;DHT22;10193;48.884;9.182;2022-08-19T12:18:22;26.10;55.10
20066;DHT22;10193;48.884;9.182;2022-08-19T12:20:51;26.10;55.20
20066;DHT22;10193;48.884;9.182;2022-08-19T12:23:20;26.20;55.30
20066;DHT22;10193;48.884;9.182;2022-08-19T12:25:48;26.20;55.40
20066;DHT22;10193;48.884;9.182;2022-08-19T12:28:18;26.30;55.40
20066;DHT22;10193;48.884;9.182;2022-08-19T12:30:46;26.40;55.40
20066;DHT22;10193;48.884;9.182;2022-08-19T12:33:14;26.40;55.30
20066;DHT22;10193;48.884;9.182;2022-08-19T12:35:41;26.50;55.10
20066;DHT22;10193;48.884;9.182;2022-08-19T12:38:09;26.60;54.80
20066;DHT22;10193;48.884;9.182;2022-08-19T12:40:36;26.70;54.40
20066;DHT22;10193;48.884;9.182;2022-08-19T12:43:04;26.70;54.20
20066;DHT22;10193;48.884;9.182;2022-08-19T12:45:31;26.70;53.90
20066;DHT22;10193;48.884;9.182;2022-08-19T12:47:58;26.70;53.70
20066;DHT22;10193;48.884;9.182;2022-08-19T12:50:26;26.80;53.60
20066;DHT22;10193;48.884;9.182;2022-08-19T12:52:53;26.70;53.30
20066;DHT22;10193;48.884;9.182;2022-08-19T12:55:20;26.70;53.30
20066;DHT22;10193;48.884;9.182;2022-08-19T12:57:47;26.70;53.20
20066;DHT22;10193;48.884;9.182;2022-08-19T13:00:16;26.70;53.20
20066;DHT22;10193;48.884;9.182;2022-08-19T13:02:45;26.70;53.00
20066;DHT22;10193;48.884;9.182;2022-08-19T13:05:14;26.70;52.90
20066;DHT22;10193;48.884;9.182;2022-08-19T13:07:43;26.60;52.70
20066;DHT22;10193;48.884;9.182;2022-08-19T13:10:11;26.60;52.60
20066;DHT22;10193;48.884;9.182;2022-08-19T13:12:39;26.60;52.40
20066;DHT22;10193;48.884;9.182;2022-08-19T13:15:08;26.60;52.50
20066;DHT22;10193;48.884;9.182;2022-08-19T13:17:36;26.60;52.30
20066;DHT22;10193;48.884;9.182;2022-08-19T13:20:03;26.50;52.40
20066;DHT22;10193;48.884;9.182;2022-08-19T13:22:31;26.50;52.50
20066;DHT22;10193;48.884;9.182;2022-08-19T13:24:59;26.50;52.50
20066;DHT22;10193;48.884;9.182;2022-08-19T13:27:26;26.50;52.40
20066;DHT22;10193;48.884;9.182;2022-08-19T13:29:53;26.50;52.50
20066;DHT22;10193;48.884;9.182;2022-08-19T13:32:40;26.50;52.50
20066;DHT22;10193;48.884;9.182;2022-08-19T13:35:24;26.40;52.70
20066;DHT22;10193;48.884;9.182;2022-08-19T13:37:51;26.40;52.80
20066;DHT22;10193;48.884;9.182;2022-08-19T13:40:24;26.40;52.80
20066;DHT22;10193;48.884;9.182;2022-08-19T13:42:53;26.40;52.90
20066;DHT22;10193;48.884;9.182;2022-08-19T13:45:22;26.40;53.90
20066;DHT22;10193;48.884;9.182;2022-08-19T13:47:50;26.50;53.50
20066;DHT22;10193;48.884;9.182;2022-08-19T13:50:19;26.40;53.80
20066;DHT22;10193;48.884;9.182;2022-08-19T13:52:47;26.40;54.30
20066;DHT22;10193;48.884;9.182;2022-08-19T13:55:15;26.40;54.60
20066;DHT22;10193;48.884;9.182;2022-08-19T13:57:43;26.40;55.00
20066;DHT22;10193;48.884;9.182;2022-08-19T14:00:14;26.30;55.30
20066;DHT22;10193;48.884;9.182;2022-08-19T14:02:43;26.20;55.60
20066;DHT22;10193;48.884;9.182;2022-08-19T14:05:13;26.20;55.90
20066;DHT22;10193;48.884;9.182;2022-08-19T14:07:40;26.10;56.20
20066;DHT22;10193;48.884;9.182;2022-08-19T14:10:10;26.10;56.50
20066;DHT22;10193;48.884;9.182;2022-08-19T14:12:38;26.00;56.80
20066;DHT22;10193;48.884;9.182;2022-08-19T14:15:08;26.00;57.10
20066;DHT22;10193;48.884;9.182;2022-08-19T14:17:37;25.90;57.40
20066;DHT22;10193;48.884;9.182;2022-08-19T14:20:06;25.90;57.70
20066;DHT22;10193;48.884;9.182;2022-08-19T14:22:35;25.80;57.80
20066;DHT22;10193;48.884;9.182;2022-08-19T14:25:03;25.80;58.00
20066;DHT22;10193;48.884;9.182;2022-08-19T14:27:32;25.80;58.10
20066;DHT22;10193;48.884;9.182;2022-08-19T14:29:59;25.80;58.30
20066;DHT22;10193;48.884;9.182;2022-08-19T14:32:27;25.70;58.30
20066;DHT22;10193;48.884;9.182;2022-08-19T14:34:54;25.70;59.10
20066;DHT22;10193;48.884;9.182;2022-08-19T14:37:21;25.70;58.60
20066;DHT22;10193;48.884;9.182;2022-08-19T14:39:48;25.60;58.70
20066;DHT22;10193;48.884;9.182;2022-08-19T14:42:15;25.60;58.80
20066;DHT22;10193;48.884;9.182;2022-08-19T14:44:42;25.60;58.90
20066;DHT22;10193;48.884;9.182;2022-08-19T14:47:09;25.50;59.00
20066;DHT22;10193;48.884;9.182;2022-08-19T14:49:38;25.50;59.20
20066;DHT22;10193;48.884;9.182;2022-08-19T14:52:06;25.50;59.50
20066;DHT22;10193;48.884;9.182;2022-08-19T14:54:33;25.50;59.70
20066;DHT22;10193;48.884;9.182;2022-08-19T14:57:00;25.40;59.90
20066;DHT22;10193;48.884;9.182;2022-08-19T14:59:26;25.40;60.10
20066;DHT22;10193;48.884;9.182;2022-08-19T15:01:53;25.50;61.10
20066;DHT22;10193;48.884;9.182;2022-08-19T15:04:20;25.50;60.30
20066;DHT22;10193;48.884;9.182;2022-08-19T15:06:48;25.50;60.30
20066;DHT22;10193;48.884;9.182;2022-08-19T15:09:16;25.50;60.30
20066;DHT22;10193;48.884;9.182;2022-08-19T15:11:43;25.60;60.30
20066;DHT22;10193;48.884;9.182;2022-08-19T15:14:10;25.60;60.40
20066;DHT22;10193;48.884;9.182;2022-08-19T15:16:37;25.70;60.60
20066;DHT22;10193;48.884;9.182;2022-08-19T15:19:07;25.70;60.70
20066;DHT22;10193;48.884;9.182;2022-08-19T15:21:35;25.70;60.70
20066;DHT22;10193;48.884;9.182;2022-08-19T15:24:04;25.70;60.70
20066;DHT22;10193;48.884;9.182;2022-08-19T15:26:31;25.70;60.70
20066;DHT22;10193;48.884;9.182;2022-08-19T15:28:59;25.70;60.60
20066;DHT22;10193;48.884;9.182;2022-08-19T15:31:26;25.80;60.60
20066;DHT22;10193;48.884;9.182;2022-08-19T15:33:54;25.80;60.40
20066;DHT22;10193;48.884;9.182;2022-08-19T15:36:23;25.80;60.30
20066;DHT22;10193;48.884;9.182;2022-08-19T15:38:50;25.80;60.30
20066;DHT22;10193;48.884;9.182;2022-08-19T15:41:20;25.70;60.20
20066;DHT22;10193;48.884;9.182;2022-08-19T15:43:54;25.70;60.30